METAR Data
IDs: Format: Raw Decoded Include TAF

Data at: 1615 UTC 26 Sep 2021

METAR for:KOTH (North Bend/SW Oregon, OR, US)
Text:KOTH 261556Z 16011KT 10SM OVC024 15/10 A2999 RMK AO2 SLP154 T01500100
Temperature: 15.0°C ( 59°F)
Dewpoint: 10.0°C ( 50°F) [RH = 72%]
Pressure (altimeter):29.99 inches Hg (1015.7 mb) [Sea level pressure: 1015.4 mb]
Winds:from the SSE (160 degrees) at 13 MPH (11 knots; 5.7 m/s)
Visibility:10 or more sm (16+ km)
Ceiling:2400 feet AGL
Clouds: overcast cloud deck at 2400 feet AGL
Text:KOTH 261456Z 17006KT 10SM OVC024 14/10 A2999 RMK AO2 SLP155 T01440100 53002
Temperature: 14.4°C ( 58°F)
Dewpoint: 10.0°C ( 50°F) [RH = 75%]
Pressure (altimeter):29.99 inches Hg (1015.7 mb) [Sea level pressure: 1015.5 mb]
Winds:from the S (170 degrees) at 7 MPH (6 knots; 3.1 m/s)
Visibility:10 or more sm (16+ km)
Ceiling:2400 feet AGL
Clouds: overcast cloud deck at 2400 feet AGL

METAR for:KAST (Astoria Rgnl, OR, US)
Text:KAST 261555Z AUTO 11003KT 10SM OVC035 15/11 A2987 RMK AO2 SLP115 T01500106 TSNO
Temperature: 15.0°C ( 59°F)
Dewpoint: 10.6°C ( 51°F) [RH = 75%]
Pressure (altimeter):29.87 inches Hg (1011.6 mb) [Sea level pressure: 1011.5 mb]
Winds:from the ESE (110 degrees) at 3 MPH (3 knots; 1.5 m/s)
Visibility:10 or more sm (16+ km)
Ceiling:3500 feet AGL
Clouds: overcast cloud deck at 3500 feet AGL
QC Flag:automated observation with no human augmentation
Text:KAST 261455Z AUTO 00000KT 10SM OVC036 14/11 A2988 RMK AO2 SLP117 T01390106 58000 TSNO
Temperature: 13.9°C ( 57°F)
Dewpoint: 10.6°C ( 51°F) [RH = 80%]
Pressure (altimeter):29.88 inches Hg (1011.9 mb) [Sea level pressure: 1011.7 mb]
Winds:calm
Visibility:10 or more sm (16+ km)
Ceiling:3600 feet AGL
Clouds: overcast cloud deck at 3600 feet AGL
QC Flag:automated observation with no human augmentation

METAR for:KPDX (Portland Intl Arpt, OR, US)
Text:KPDX 261610Z 14007KT 10SM OVC030 16/10 A2995 RMK AO2 T01610100
Temperature: 16.1°C ( 61°F)
Dewpoint: 10.0°C ( 50°F) [RH = 67%]
Pressure (altimeter):29.95 inches Hg (1014.3 mb)
Winds:from the SE (140 degrees) at 8 MPH (7 knots; 3.6 m/s)
Visibility:10 or more sm (16+ km)
Ceiling:3000 feet AGL
Clouds: overcast cloud deck at 3000 feet AGL
Text:KPDX 261553Z 16003KT 10SM OVC029 16/10 A2995 RMK AO2 SLP142 T01610100
Temperature: 16.1°C ( 61°F)
Dewpoint: 10.0°C ( 50°F) [RH = 67%]
Pressure (altimeter):29.95 inches Hg (1014.3 mb) [Sea level pressure: 1014.2 mb]
Winds:from the SSE (160 degrees) at 3 MPH (3 knots; 1.5 m/s)
Visibility:10 or more sm (16+ km)
Ceiling:2900 feet AGL
Clouds: overcast cloud deck at 2900 feet AGL
Text:KPDX 261453Z 17003KT 10SM OVC023 16/10 A2995 RMK AO2 SLP139 T01560100 53002
Temperature: 15.6°C ( 60°F)
Dewpoint: 10.0°C ( 50°F) [RH = 69%]
Pressure (altimeter):29.95 inches Hg (1014.3 mb) [Sea level pressure: 1013.9 mb]
Winds:from the S (170 degrees) at 3 MPH (3 knots; 1.5 m/s)
Visibility:10 or more sm (16+ km)
Ceiling:2300 feet AGL
Clouds: overcast cloud deck at 2300 feet AGL

METAR for:KDLS (The Dalles Muni, OR, US)
Text:KDLS 261553Z AUTO 27017G21KT 10SM CLR 18/09 A2988 RMK AO2 SLP116 T01780089 TSNO
Temperature: 17.8°C ( 64°F)
Dewpoint: 8.9°C ( 48°F) [RH = 56%]
Pressure (altimeter):29.88 inches Hg (1011.9 mb) [Sea level pressure: 1011.6 mb]
Winds:from the W (270 degrees) at 20 MPH (17 knots; 8.7 m/s) gusting to 24 MPH (21 knots; 10.8 m/s)
Visibility:10 or more sm (16+ km)
Ceiling:at least 12,000 feet AGL
Clouds:sky clear below 12,000 feet AGL
QC Flag:automated observation with no human augmentation
Text:KDLS 261453Z AUTO 28013KT 10SM CLR 17/09 A2987 RMK AO2 PK WND 27026/1434 SLP113 T01670089 53011 TSNO
Temperature: 16.7°C ( 62°F)
Dewpoint: 8.9°C ( 48°F) [RH = 60%]
Pressure (altimeter):29.87 inches Hg (1011.6 mb) [Sea level pressure: 1011.3 mb]
Winds:from the W (280 degrees) at 15 MPH (13 knots; 6.7 m/s)
Visibility:10 or more sm (16+ km)
Ceiling:at least 12,000 feet AGL
Clouds:sky clear below 12,000 feet AGL
QC Flag:automated observation with no human augmentation

METAR for:KPSC (Pasco/Tri Cities Arp, WA, US)
Text:KPSC 261553Z 20007KT 10SM CLR 22/07 A2981 RMK AO2 SLP091 T02170072
Temperature: 21.7°C ( 71°F)
Dewpoint: 7.2°C ( 45°F) [RH = 39%]
Pressure (altimeter):29.81 inches Hg (1009.6 mb) [Sea level pressure: 1009.1 mb]
Winds:from the SSW (200 degrees) at 8 MPH (7 knots; 3.6 m/s)
Visibility:10 or more sm (16+ km)
Ceiling:at least 12,000 feet AGL
Clouds:sky clear below 12,000 feet AGL
Text:KPSC 261453Z 25007KT 10SM CLR 21/07 A2980 RMK AO2 SLP089 T02060072 53012
Temperature: 20.6°C ( 69°F)
Dewpoint: 7.2°C ( 45°F) [RH = 42%]
Pressure (altimeter):29.80 inches Hg (1009.2 mb) [Sea level pressure: 1008.9 mb]
Winds:from the WSW (250 degrees) at 8 MPH (7 knots; 3.6 m/s)
Visibility:10 or more sm (16+ km)
Ceiling:at least 12,000 feet AGL
Clouds:sky clear below 12,000 feet AGL

METAR for:KHRI (Hermiston Muni, OR, US)
Text:KHRI 261553Z AUTO 23010KT 10SM CLR 22/07 A2985 RMK AO2 SLP102 T02170072 TSNO
Temperature: 21.7°C ( 71°F)
Dewpoint: 7.2°C ( 45°F) [RH = 39%]
Pressure (altimeter):29.85 inches Hg (1010.9 mb) [Sea level pressure: 1010.2 mb]
Winds:from the SW (230 degrees) at 12 MPH (10 knots; 5.1 m/s)
Visibility:10 or more sm (16+ km)
Ceiling:at least 12,000 feet AGL
Clouds:sky clear below 12,000 feet AGL
QC Flag:automated observation with no human augmentation
Text:KHRI 261453Z AUTO 21008KT 10SM CLR 19/07 A2984 RMK AO2 SLP101 T01890067 51013 TSNO
Temperature: 18.9°C ( 66°F)
Dewpoint: 6.7°C ( 44°F) [RH = 45%]
Pressure (altimeter):29.84 inches Hg (1010.6 mb) [Sea level pressure: 1010.1 mb]
Winds:from the SSW (210 degrees) at 9 MPH (8 knots; 4.1 m/s)
Visibility:10 or more sm (16+ km)
Ceiling:at least 12,000 feet AGL
Clouds:sky clear below 12,000 feet AGL
QC Flag:automated observation with no human augmentation

METAR for:KGEG (Spokane Intl, WA, US)
Text:KGEG 261553Z 18007KT 10SM SCT120 BKN200 16/03 A2984 RMK AO2 SLP094 VIRGA T01560033
Temperature: 15.6°C ( 60°F)
Dewpoint: 3.3°C ( 38°F) [RH = 44%]
Pressure (altimeter):29.84 inches Hg (1010.6 mb) [Sea level pressure: 1009.4 mb]
Winds:from the S (180 degrees) at 8 MPH (7 knots; 3.6 m/s)
Visibility:10 or more sm (16+ km)
Ceiling:20000 feet AGL
Clouds: scattered clouds at 12000 feet AGL, broken clouds at 20000 feet AGL
Text:KGEG 261453Z 18007KT 10SM SCT120 BKN200 14/02 A2983 RMK AO2 SLP092 VIRGA T01390022 53007
Temperature: 13.9°C ( 57°F)
Dewpoint: 2.2°C ( 36°F) [RH = 45%]
Pressure (altimeter):29.83 inches Hg (1010.2 mb) [Sea level pressure: 1009.2 mb]
Winds:from the S (180 degrees) at 8 MPH (7 knots; 3.6 m/s)
Visibility:10 or more sm (16+ km)
Ceiling:20000 feet AGL
Clouds: scattered clouds at 12000 feet AGL, broken clouds at 20000 feet AGL